sensor_id;sensor_type;location;lat;lon;timestamp;temperature;humidity
20438;DHT22;65664;50.380;8.812;2023-05-10T19:20:35;15.50;99.90
20438;DHT22;65664;50.380;8.812;2023-05-10T19:29:57;15.40;99.90
20438;DHT22;65664;50.380;8.812;2023-05-10T19:32:26;15.60;99.90
20438;DHT22;65664;50.380;8.812;2023-05-10T19:34:55;15.70;99.90
20438;DHT22;65664;50.380;8.812;2023-05-10T19:37:25;15.80;99.90
20438;DHT22;65664;50.380;8.812;2023-05-10T19:39:52;15.80;99.90
20438;DHT22;65664;50.380;8.812;2023-05-10T19:42:20;15.80;99.90
20438;DHT22;65664;50.380;8.812;2023-05-10T19:44:47;16.00;99.90
20438;DHT22;65664;50.380;8.812;2023-05-10T19:47:18;16.00;99.90
20438;DHT22;65664;50.380;8.812;2023-05-10T19:49:45;16.00;99.90
20438;DHT22;65664;50.380;8.812;2023-05-10T19:52:12;15.70;99.90
20438;DHT22;65664;50.380;8.812;2023-05-10T19:54:38;15.80;99.90
20438;DHT22;65664;50.380;8.812;2023-05-10T19:57:06;16.00;99.90
20438;DHT22;65664;50.380;8.812;2023-05-10T19:59:33;15.90;99.90
20438;DHT22;65664;50.380;8.812;2023-05-10T20:02:00;16.00;99.90
20438;DHT22;65664;50.380;8.812;2023-05-10T20:04:28;15.90;99.90
20438;DHT22;65664;50.380;8.812;2023-05-10T20:06:55;15.60;99.90
20438;DHT22;65664;50.380;8.812;2023-05-10T20:09:26;15.60;99.90
20438;DHT22;65664;50.380;8.812;2023-05-10T20:11:53;15.80;99.90
20438;DHT22;65664;50.380;8.812;2023-05-10T20:14:20;16.10;99.90
20438;DHT22;65664;50.380;8.812;2023-05-10T20:16:47;16.20;99.90
20438;DHT22;65664;50.380;8.812;2023-05-10T20:19:14;16.20;99.90
20438;DHT22;65664;50.380;8.812;2023-05-10T20:21:43;16.10;99.90
20438;DHT22;65664;50.380;8.812;2023-05-10T20:24:10;15.80;99.90
20438;DHT22;65664;50.380;8.812;2023-05-10T20:26:37;15.60;99.90
20438;DHT22;65664;50.380;8.812;2023-05-10T20:29:04;15.40;99.90
20438;DHT22;65664;50.380;8.812;2023-05-10T20:31:33;15.50;99.90
20438;DHT22;65664;50.380;8.812;2023-05-10T20:34:00;15.80;99.90
20438;DHT22;65664;50.380;8.812;2023-05-10T20:36:27;16.00;99.90
20438;DHT22;65664;50.380;8.812;2023-05-10T20:38:56;16.20;99.90
20438;DHT22;65664;50.380;8.812;2023-05-10T20:41:23;16.30;99.90
20438;DHT22;65664;50.380;8.812;2023-05-10T20:43:50;16.10;99.90
20438;DHT22;65664;50.380;8.812;2023-05-10T20:46:17;16.10;99.90
20438;DHT22;65664;50.380;8.812;2023-05-10T20:48:44;16.00;99.90
20438;DHT22;65664;50.380;8.812;2023-05-10T20:51:11;15.90;99.90
20438;DHT22;65664;50.380;8.812;2023-05-10T20:53:40;15.90;99.90
20438;DHT22;65664;50.380;8.812;2023-05-10T20:56:08;16.20;99.90
20438;DHT22;65664;50.380;8.812;2023-05-10T20:58:38;15.90;99.90
20438;DHT22;65664;50.380;8.812;2023-05-10T21:01:08;16.00;99.90
20438;DHT22;65664;50.380;8.812;2023-05-10T21:03:35;16.00;99.90
20438;DHT22;65664;50.380;8.812;2023-05-10T21:06:02;15.80;99.90
20438;DHT22;65664;50.380;8.812;2023-05-10T21:08:32;15.60;99.90
20438;DHT22;65664;50.380;8.812;2023-05-10T21:11:01;15.60;99.90
20438;DHT22;65664;50.380;8.812;2023-05-10T21:13:33;15.40;99.90
20438;DHT22;65664;50.380;8.812;2023-05-10T21:16:00;15.10;99.90
20438;DHT22;65664;50.380;8.812;2023-05-10T21:18:27;15.10;99.90
20438;DHT22;65664;50.380;8.812;2023-05-10T21:20:54;15.10;99.90
20438;DHT22;65664;50.380;8.812;2023-05-10T21:23:21;15.20;99.90
20438;DHT22;65664;50.380;8.812;2023-05-10T21:25:48;15.00;99.90
20438;DHT22;65664;50.380;8.812;2023-05-10T21:28:15;15.00;99.90
20438;DHT22;65664;50.380;8.812;2023-05-10T21:30:43;15.10;99.90
20438;DHT22;65664;50.380;8.812;2023-05-10T21:33:10;15.30;99.90
20438;DHT22;65664;50.380;8.812;2023-05-10T21:35:37;15.40;99.90
20438;DHT22;65664;50.380;8.812;2023-05-10T21:38:09;15.10;99.90
20438;DHT22;65664;50.380;8.812;2023-05-10T21:40:37;15.30;99.90
20438;DHT22;65664;50.380;8.812;2023-05-10T21:43:07;15.40;99.90
20438;DHT22;65664;50.380;8.812;2023-05-10T21:45:35;15.40;99.90
20438;DHT22;65664;50.380;8.812;2023-05-10T21:48:07;15.10;99.90
20438;DHT22;65664;50.380;8.812;2023-05-10T21:50:34;15.40;99.90
20438;DHT22;65664;50.380;8.812;2023-05-10T21:53:01;15.30;99.90
20438;DHT22;65664;50.380;8.812;2023-05-10T21:55:32;15.20;99.90
20438;DHT22;65664;50.380;8.812;2023-05-10T21:58:00;15.20;99.90
20438;DHT22;65664;50.380;8.812;2023-05-10T22:00:27;15.10;99.90
20438;DHT22;65664;50.380;8.812;2023-05-10T22:02:54;15.40;99.90
20438;DHT22;65664;50.380;8.812;2023-05-10T22:05:22;15.60;99.90
